Terminal Aerodrome Forecast
Issued by NWS Grand Forks, ND

Home | Current Version | Previous Version | Text Only | Print | Product List | Glossary On
Versions: 1 2 3 4 5 6 7 8 9 10 11 12 13 14 15 16 17 18 19 20 21 22
308
FTUS43 KFGF 250446 AAD
TAFFAR
TAF AMD
KFAR 250446Z 2505/2524 33009KT P6SM OVC012
      TEMPO 2505/2506 -DZ
     FM251100 32006KT P6SM OVC008
     FM251800 36009KT P6SM OVC010=

USA.gov is the U.S. government's official web portal to all federal, state and local government web resources and services.